Decoded Metar for PAMO (MOUNTAIN VILLAGE in AK, USA) (IATA:MOU) | Meteo·Mobile Aviation Weather
aviador You're here:

PAMO Decoded Metar

MOUNTAIN VILLAGE in AK, USA
Report Time2019-07-16 00:02:00
UTC Time2019-07-16 00:08:25
Flight Rules vfr VFR
Wind100° at 10 kt
W.Decomp.*RWY 02: 4.1 kt HW 9.1 kt RCW
Visibility9999 m
Phenomena:N/A
Clouds:N/A
Expected CloudBase > 4,000 ft AGL from Temp-Dew spread
CeilingNone
Temp21°C (ISA +7)
Dew Point11°C (53% RH)
AAT17.7°C
QNH1005 hPa
Density Alt1,565 ft
Elevation338 ft
Report Wrong Elevation
Raw Report
PAMO 160002Z AUTO 10010KT 10SM CLR 21/11 A2968 RMK AO2 SLP054
T02060111 10206 20161 56003=

Extra information for PAMO:More info

Metar Taf Metar & Taf Last 4 Metars F.Rules Stats Wind Profile Meteogram Temp Stats Airport Information Weather charts Add Link Nearby VenuesMetar ALERT Operation Metar Decoded Social comments

AIRNAV info for PAMO